Time;durP1;ratioP1;P1;durP2;ratioP2;P2;SDS_P1;SDS_P2;PMS_P1;PMS_P2;Temp;Humidity;BMP_temperature;BMP_pressure;BME280_temperature;BME280_humidity;BME280_pressure;Samples;Min_cycle;Max_cycle;Signal;HPM_P1;HPM_P2
2022/01/25 00:26:24;;;;;;;10.82;7.63;;;;;;;;;;7407713;28;20492;-63
2022/01/25 00:30:30;;;;;;;14.90;7.82;;;;;;;;;;7417244;28;20620;-62
2022/01/25 00:34:31;;;;;;;11.70;7.63;;;;;;;;;;7418415;28;20549;-63
2022/01/25 00:38:32;;;;;;;10.98;7.50;;;;;;;;;;7416321;28;20579;-62
2022/01/25 00:42:32;;;;;;;18.17;7.50;;;;;;;;;;7402970;28;20509;-63
2022/01/25 00:46:32;;;;;;;11.68;7.35;;;;;;;;;;7406366;28;20533;-62
2022/01/25 00:50:40;;;;;;;13.60;7.47;;;;;;;;;;7406161;28;20591;-63
2022/01/25 00:54:43;;;;;;;10.32;7.28;;;;;;;;;;7405692;28;21251;-63
2022/01/25 00:58:43;;;;;;;10.93;7.67;;;;;;;;;;7398489;28;21190;-62
2022/01/25 01:02:44;;;;;;;11.85;7.53;;;;;;;;;;7399961;28;21004;-63
2022/01/25 01:06:46;;;;;;;15.32;8.20;;;;;;;;;;7400011;28;20989;-62
2022/01/25 01:10:46;;;;;;;13.75;8.43;;;;;;;;;;7397343;28;20538;-62
2022/01/25 01:14:57;;;;;;;11.73;8.38;;;;;;;;;;7400772;28;20567;-62
2022/01/25 01:32:18;;;;;;;13.27;7.82;;;;;;;;;;7407122;28;20767;-62
2022/01/25 01:36:56;;;;;;;13.03;8.43;;;;;;;;;;7395498;28;20372;-62
2022/01/25 01:49:39;;;;;;;10.38;7.63;;;;;;;;;;7398947;28;20400;-62
2022/01/25 01:53:40;;;;;;;17.83;9.23;;;;;;;;;;7399615;28;20032;-62
2022/01/25 01:57:41;;;;;;;15.25;8.93;;;;;;;;;;7396021;28;20719;-62
2022/01/25 02:01:42;;;;;;;16.52;10.07;;;;;;;;;;7397867;28;20453;-63
2022/01/25 02:05:43;;;;;;;13.88;8.77;;;;;;;;;;7392677;28;20706;-62
2022/01/25 02:09:43;;;;;;;12.90;8.73;;;;;;;;;;7388431;28;20484;-62
2022/01/25 02:13:44;;;;;;;12.70;8.82;;;;;;;;;;7391468;28;20508;-62
2022/01/25 02:26:06;;;;;;;12.27;7.65;;;;;;;;;;7395864;28;20623;-62
2022/01/25 02:30:06;;;;;;;12.65;8.30;;;;;;;;;;7392893;28;20685;-62
2022/01/25 02:34:06;;;;;;;22.13;10.07;;;;;;;;;;7391993;28;20474;-62
2022/01/25 02:38:07;;;;;;;15.38;9.50;;;;;;;;;;7405618;28;20471;-62
2022/01/25 02:42:07;;;;;;;14.75;8.75;;;;;;;;;;7392794;28;20634;-63
2022/01/25 02:50:11;;;;;;;17.77;9.80;;;;;;;;;;7396890;28;21133;-63
2022/01/25 02:54:12;;;;;;;19.10;10.35;;;;;;;;;;7395860;28;20558;-63
2022/01/25 02:58:12;;;;;;;20.65;10.52;;;;;;;;;;7396606;28;20667;-62
2022/01/25 03:02:12;;;;;;;13.90;9.13;;;;;;;;;;7389512;28;20709;-62
2022/01/25 03:06:16;;;;;;;15.38;9.18;;;;;;;;;;7394389;28;21049;-62
2022/01/25 03:10:17;;;;;;;12.25;8.02;;;;;;;;;;7395965;28;21082;-62
2022/01/25 03:14:20;;;;;;;12.98;8.57;;;;;;;;;;7390361;28;20670;-63
2022/01/25 03:18:37;;;;;;;14.20;7.57;;;;;;;;;;7410186;28;21041;-62
2022/01/25 03:26:44;;;;;;;17.05;9.20;;;;;;;;;;7408163;28;20375;-62
2022/01/25 03:30:45;;;;;;;18.73;9.93;;;;;;;;;;7402937;28;20474;-62
2022/01/25 03:34:45;;;;;;;16.00;9.60;;;;;;;;;;7403398;28;21008;-62
2022/01/25 03:38:47;;;;;;;13.40;9.00;;;;;;;;;;7398418;28;20698;-62
2022/01/25 03:42:48;;;;;;;16.02;9.80;;;;;;;;;;7395177;28;20520;-62
2022/01/25 03:50:50;;;;;;;20.10;9.20;;;;;;;;;;7401716;28;20429;-62
2022/01/25 03:54:50;;;;;;;13.55;8.85;;;;;;;;;;7398818;28;20496;-62
2022/01/25 03:58:51;;;;;;;12.15;8.07;;;;;;;;;;7409322;28;20463;-62
2022/01/25 04:02:56;;;;;;;14.68;8.93;;;;;;;;;;7414010;28;20471;-62
2022/01/25 04:06:57;;;;;;;18.13;9.98;;;;;;;;;;7400854;28;21069;-62
2022/01/25 04:10:57;;;;;;;39.50;11.35;;;;;;;;;;7413407;28;20945;-62
2022/01/25 04:14:59;;;;;;;169.70;15.23;;;;;;;;;;7408657;28;21220;-63
2022/01/25 04:27:19;;;;;;;115.60;12.60;;;;;;;;;;7414639;28;21301;-63
2022/01/25 04:31:20;;;;;;;120.78;12.50;;;;;;;;;;7409990;28;20343;-62
2022/01/25 04:52:26;;;;;;;283.83;16.70;;;;;;;;;;7410414;28;20606;-63
2022/01/25 04:56:37;;;;;;;527.75;23.92;;;;;;;;;;7413572;28;20496;-63
2022/01/25 05:00:38;;;;;;;141.30;11.35;;;;;;;;;;7413635;28;21132;-63
2022/01/25 05:04:45;;;;;;;454.95;20.63;;;;;;;;;;7406757;28;20781;-63
2022/01/25 05:08:55;;;;;;;649.42;23.25;;;;;;;;;;7394652;28;20579;-63
2022/01/25 05:17:11;;;;;;;303.05;17.75;;;;;;;;;;7403040;28;20236;-63
2022/01/25 05:25:30;;;;;;;307.90;17.10;;;;;;;;;;7408093;28;20562;-63
2022/01/25 05:29:31;;;;;;;425.52;22.48;;;;;;;;;;7410573;28;20589;-62
2022/01/25 05:33:32;;;;;;;243.35;17.23;;;;;;;;;;7401766;28;20556;-63
2022/01/25 05:37:36;;;;;;;280.77;15.68;;;;;;;;;;7407710;28;20013;-63
2022/01/25 05:41:36;;;;;;;289.90;18.35;;;;;;;;;;7394266;28;21223;-63
2022/01/25 05:45:57;;;;;;;339.73;28.47;;;;;;;;;;7394026;28;20622;-63
2022/01/25 05:49:58;;;;;;;649.10;29.27;;;;;;;;;;7386595;28;21151;-62
2022/01/25 05:53:59;;;;;;;305.75;23.88;;;;;;;;;;7394961;28;20546;-63
2022/01/25 05:57:59;;;;;;;313.33;25.95;;;;;;;;;;7388369;28;20538;-63
2022/01/25 06:02:01;;;;;;;290.73;20.08;;;;;;;;;;7385172;28;20547;-63
2022/01/25 06:06:01;;;;;;;321.73;19.50;;;;;;;;;;7370764;28;20949;-63
2022/01/25 06:10:02;;;;;;;143.80;16.63;;;;;;;;;;7393084;28;20520;-63
2022/01/25 06:14:03;;;;;;;346.15;25.00;;;;;;;;;;7391096;28;20669;-63
2022/01/25 06:18:03;;;;;;;303.13;20.05;;;;;;;;;;7387850;28;20573;-62
2022/01/25 06:22:04;;;;;;;202.95;19.27;;;;;;;;;;7401420;28;20790;-63
2022/01/25 06:26:04;;;;;;;257.85;21.08;;;;;;;;;;7404320;28;20671;-63
2022/01/25 06:30:09;;;;;;;163.93;19.83;;;;;;;;;;7410058;28;21139;-62
2022/01/25 06:34:09;;;;;;;234.93;27.73;;;;;;;;;;7413990;28;21083;-63
2022/01/25 06:38:09;;;;;;;200.83;22.83;;;;;;;;;;7408084;28;21017;-63
2022/01/25 06:42:10;;;;;;;169.10;20.83;;;;;;;;;;7404315;28;21482;-63
2022/01/25 06:46:10;;;;;;;117.93;17.60;;;;;;;;;;7413518;28;20760;-63
2022/01/25 06:50:12;;;;;;;75.53;15.80;;;;;;;;;;7410491;28;20940;-63
2022/01/25 06:54:12;;;;;;;165.18;17.30;;;;;;;;;;7422573;28;21333;-63
2022/01/25 06:58:12;;;;;;;172.55;17.23;;;;;;;;;;7442772;28;21074;-63
2022/01/25 07:02:12;;;;;;;78.65;13.50;;;;;;;;;;7457922;28;20810;-62
2022/01/25 07:06:13;;;;;;;152.57;15.45;;;;;;;;;;7462914;28;21024;-63
2022/01/25 07:10:14;;;;;;;109.20;12.48;;;;;;;;;;7446402;28;20720;-62
2022/01/25 07:14:14;;;;;;;117.38;13.00;;;;;;;;;;7456982;28;20303;-63
2022/01/25 07:18:15;;;;;;;605.00;23.13;;;;;;;;;;7463974;28;20259;-63
2022/01/25 07:22:16;;;;;;;495.85;21.70;;;;;;;;;;7447472;28;20541;-63
2022/01/25 07:26:16;;;;;;;202.50;13.05;;;;;;;;;;7444837;28;20630;-63
2022/01/25 07:30:16;;;;;;;208.40;12.70;;;;;;;;;;7438341;28;20587;-63
2022/01/25 07:34:17;;;;;;;233.27;14.93;;;;;;;;;;7442341;28;21101;-63
2022/01/25 07:38:17;;;;;;;88.27;10.70;;;;;;;;;;7457461;28;20570;-63
2022/01/25 07:42:18;;;;;;;196.00;14.80;;;;;;;;;;7438074;28;21189;-63
2022/01/25 07:46:18;;;;;;;440.92;17.45;;;;;;;;;;7420056;28;20795;-63
2022/01/25 07:50:19;;;;;;;95.13;11.27;;;;;;;;;;7432980;28;20790;-63
2022/01/25 07:54:20;;;;;;;694.85;25.00;;;;;;;;;;7448491;28;20541;-64
2022/01/25 07:58:20;;;;;;;198.38;12.63;;;;;;;;;;7430588;28;20028;-63
2022/01/25 08:02:20;;;;;;;188.68;12.18;;;;;;;;;;7429221;28;20710;-63
2022/01/25 08:06:21;;;;;;;107.20;9.98;;;;;;;;;;7408539;28;20451;-63
2022/01/25 08:10:23;;;;;;;61.17;9.05;;;;;;;;;;7427553;28;21137;-63
2022/01/25 08:14:23;;;;;;;339.30;13.25;;;;;;;;;;7445339;28;20625;-63
2022/01/25 08:18:24;;;;;;;547.88;17.77;;;;;;;;;;7440178;28;20678;-63
2022/01/25 08:22:24;;;;;;;137.48;10.10;;;;;;;;;;7434238;28;20566;-63
2022/01/25 08:26:25;;;;;;;156.77;10.90;;;;;;;;;;7431212;28;20498;-63
2022/01/25 08:30:25;;;;;;;84.35;9.20;;;;;;;;;;7442032;28;20581;-63
2022/01/25 08:34:25;;;;;;;267.00;12.07;;;;;;;;;;7423870;28;21210;-63
2022/01/25 08:38:26;;;;;;;208.35;11.90;;;;;;;;;;7441931;28;20477;-63
2022/01/25 08:42:27;;;;;;;433.50;17.77;;;;;;;;;;7439814;28;20574;-63
2022/01/25 08:46:27;;;;;;;171.45;11.65;;;;;;;;;;7434815;28;21415;-63
2022/01/25 08:50:27;;;;;;;227.15;12.25;;;;;;;;;;7437952;28;20662;-63
2022/01/25 08:54:28;;;;;;;503.13;18.00;;;;;;;;;;7422195;28;20460;-64
2022/01/25 08:58:28;;;;;;;616.78;21.58;;;;;;;;;;7446747;28;20677;-64
2022/01/25 09:02:28;;;;;;;213.80;12.13;;;;;;;;;;7479766;28;20420;-63
2022/01/25 09:06:29;;;;;;;359.08;17.85;;;;;;;;;;7475793;28;20490;-64
2022/01/25 09:10:29;;;;;;;173.88;11.60;;;;;;;;;;7467663;28;20876;-63
2022/01/25 09:14:30;;;;;;;148.30;11.68;;;;;;;;;;7468383;28;20717;-63
2022/01/25 09:18:30;;;;;;;456.63;14.77;;;;;;;;;;7452751;28;20332;-63
2022/01/25 09:22:30;;;;;;;255.95;11.65;;;;;;;;;;7480201;28;20784;-63
2022/01/25 09:26:31;;;;;;;419.33;13.48;;;;;;;;;;7459933;28;20488;-63
2022/01/25 09:30:31;;;;;;;275.77;12.05;;;;;;;;;;7468535;28;20571;-63
2022/01/25 09:34:32;;;;;;;125.55;10.50;;;;;;;;;;7452912;28;20456;-63
2022/01/25 09:38:32;;;;;;;276.60;11.85;;;;;;;;;;7410010;28;20737;-63
2022/01/25 09:42:32;;;;;;;156.10;9.07;;;;;;;;;;7419425;28;20569;-63
2022/01/25 09:46:33;;;;;;;109.85;8.00;;;;;;;;;;7415675;28;20583;-63
2022/01/25 09:50:34;;;;;;;305.98;11.98;;;;;;;;;;7410914;28;20638;-63
2022/01/25 09:54:35;;;;;;;354.45;12.55;;;;;;;;;;7408647;28;20567;-63
2022/01/25 09:58:36;;;;;;;274.85;13.07;;;;;;;;;;7408606;28;20584;-64
2022/01/25 10:02:40;;;;;;;333.65;13.40;;;;;;;;;;7415525;28;20283;-63
2022/01/25 10:06:41;;;;;;;131.18;10.68;;;;;;;;;;7438776;28;20660;-63
2022/01/25 10:10:46;;;;;;;242.73;12.45;;;;;;;;;;7439503;28;20146;-63
2022/01/25 10:15:02;;;;;;;356.08;15.68;;;;;;;;;;7441983;28;20907;-63
2022/01/25 10:19:06;;;;;;;263.45;11.80;;;;;;;;;;7464592;28;20121;-63
2022/01/25 10:23:06;;;;;;;;;;;;;;;;;;7448181;28;20529;-63
2022/01/25 10:27:09;;;;;;;257.40;12.18;;;;;;;;;;7474828;28;20316;-63
2022/01/25 10:31:09;;;;;;;318.35;13.50;;;;;;;;;;7465303;28;20849;-63
2022/01/25 10:35:13;;;;;;;412.33;15.57;;;;;;;;;;7459935;28;20755;-63
2022/01/25 10:39:18;;;;;;;318.83;13.57;;;;;;;;;;7452748;28;21112;-63
2022/01/25 10:43:23;;;;;;;286.90;12.88;;;;;;;;;;7455523;28;20724;-63
2022/01/25 10:47:23;;;;;;;;;;;;;;;;;;7449943;28;20707;-63
2022/01/25 10:51:28;;;;;;;324.67;14.48;;;;;;;;;;7462203;28;20273;-63
2022/01/25 10:55:35;;;;;;;227.73;11.70;;;;;;;;;;7440675;28;20932;-64
2022/01/25 10:59:36;;;;;;;254.98;12.32;;;;;;;;;;7460251;28;20558;-64
2022/01/25 11:03:41;;;;;;;205.20;12.35;;;;;;;;;;7452664;28;20770;-63
2022/01/25 11:07:45;;;;;;;125.30;10.85;;;;;;;;;;7454221;28;20871;-64
2022/01/25 11:11:47;;;;;;;322.75;16.58;;;;;;;;;;7423148;28;20459;-64
2022/01/25 11:15:47;;;;;;;299.05;15.20;;;;;;;;;;7435878;28;21131;-63
2022/01/25 11:19:47;;;;;;;283.05;13.95;;;;;;;;;;7476716;28;20769;-63
2022/01/25 11:23:48;;;;;;;331.77;15.45;;;;;;;;;;7454719;28;20435;-63
2022/01/25 11:27:49;;;;;;;335.73;15.88;;;;;;;;;;7480347;28;20552;-63
2022/01/25 11:31:52;;;;;;;461.40;17.27;;;;;;;;;;7493675;28;20629;-63
2022/01/25 11:35:53;;;;;;;285.33;15.38;;;;;;;;;;7474827;28;20606;-64
2022/01/25 11:39:53;;;;;;;182.90;12.63;;;;;;;;;;7531101;28;20547;-63
2022/01/25 11:44:08;;;;;;;236.27;13.88;;;;;;;;;;7522441;28;20470;-64
2022/01/25 11:48:09;;;;;;;113.22;13.63;;;;;;;;;;7519497;28;20475;-64
2022/01/25 11:52:13;;;;;;;134.80;22.15;;;;;;;;;;7508483;28;20600;-64
2022/01/25 11:56:13;;;;;;;85.35;14.10;;;;;;;;;;7484162;28;20388;-63
2022/01/25 12:00:14;;;;;;;95.57;12.73;;;;;;;;;;7477812;28;20617;-64
2022/01/25 12:04:16;;;;;;;148.63;12.82;;;;;;;;;;7467035;28;20543;-64
2022/01/25 12:08:16;;;;;;;149.48;13.60;;;;;;;;;;7462670;28;20491;-64
2022/01/25 12:12:17;;;;;;;58.33;12.73;;;;;;;;;;7527114;28;20440;-64
2022/01/25 12:16:28;;;;;;;70.57;14.05;;;;;;;;;;7506936;28;20501;-64
2022/01/25 12:20:28;;;;;;;82.40;11.77;;;;;;;;;;7514686;28;20717;-64
2022/01/25 12:24:51;;;;;;;224.75;16.50;;;;;;;;;;7506535;28;20030;-64
2022/01/25 12:28:51;;;;;;;156.13;15.75;;;;;;;;;;7475854;28;20476;-64
2022/01/25 12:33:03;;;;;;;204.85;14.00;;;;;;;;;;7513206;28;21117;-64
2022/01/25 12:37:03;;;;;;;313.00;15.38;;;;;;;;;;7499552;28;20983;-64
2022/01/25 12:41:15;;;;;;;344.63;15.83;;;;;;;;;;7498494;28;20211;-64
2022/01/25 12:45:16;;;;;;;303.33;13.95;;;;;;;;;;7480206;28;21357;-64
2022/01/25 12:49:20;;;;;;;490.73;17.35;;;;;;;;;;7498123;28;20051;-64
2022/01/25 12:53:22;;;;;;;368.65;14.98;;;;;;;;;;7478582;28;20465;-64
2022/01/25 12:57:23;;;;;;;460.05;17.30;;;;;;;;;;7451626;28;20563;-64
2022/01/25 13:01:24;;;;;;;573.70;21.35;;;;;;;;;;7451265;28;20562;-64
2022/01/25 13:05:25;;;;;;;502.73;19.73;;;;;;;;;;7473868;28;20651;-64
2022/01/25 13:09:33;;;;;;;556.28;19.60;;;;;;;;;;7431002;28;20558;-64
2022/01/25 13:13:45;;;;;;;186.65;14.60;;;;;;;;;;7425538;28;20572;-64
2022/01/25 13:17:45;;;;;;;399.63;18.33;;;;;;;;;;7434331;28;20709;-64
2022/01/25 13:21:57;;;;;;;426.07;16.17;;;;;;;;;;7413309;28;20578;-64
2022/01/25 13:26:10;;;;;;;174.05;12.52;;;;;;;;;;7428284;28;20751;-64
2022/01/25 13:34:30;;;;;;;442.75;19.25;;;;;;;;;;7459797;28;20782;-64
2022/01/25 13:38:30;;;;;;;298.05;16.88;;;;;;;;;;7456180;28;20393;-64
2022/01/25 13:46:55;;;;;;;330.63;14.75;;;;;;;;;;7455020;28;20569;-64
2022/01/25 13:51:00;;;;;;;255.30;12.43;;;;;;;;;;7475480;28;21189;-64
2022/01/25 13:55:07;;;;;;;586.83;18.55;;;;;;;;;;7510681;28;20491;-64
2022/01/25 13:59:08;;;;;;;691.88;22.73;;;;;;;;;;7542356;28;20728;-64
2022/01/25 14:03:08;;;;;;;275.27;14.48;;;;;;;;;;7552954;28;20040;-64
2022/01/25 14:24:51;;;;;;;391.55;14.70;;;;;;;;;;7471345;28;20899;-65
2022/01/25 14:28:54;;;;;;;466.60;16.73;;;;;;;;;;7473575;28;20693;-64
2022/01/25 14:33:02;;;;;;;253.83;12.50;;;;;;;;;;7448228;28;20520;-64
2022/01/25 14:37:10;;;;;;;228.70;12.48;;;;;;;;;;7459229;28;20270;-64
2022/01/25 14:41:11;;;;;;;314.10;14.13;;;;;;;;;;7483764;28;20349;-64
2022/01/25 14:45:19;;;;;;;220.50;12.10;;;;;;;;;;7492830;28;20555;-65
2022/01/25 14:49:27;;;;;;;253.13;12.48;;;;;;;;;;7453357;28;20560;-64
2022/01/25 14:53:28;;;;;;;317.90;13.23;;;;;;;;;;7441024;28;20321;-64
2022/01/25 14:57:39;;;;;;;179.05;11.32;;;;;;;;;;7467857;28;20738;-64
2022/01/25 15:01:39;;;;;;;115.90;9.90;;;;;;;;;;7459605;28;20676;-64
2022/01/25 15:05:39;;;;;;;56.60;9.50;;;;;;;;;;7489007;28;21091;-64
2022/01/25 15:09:48;;;;;;;257.15;12.57;;;;;;;;;;7498969;28;20029;-64
2022/01/25 15:13:57;;;;;;;368.45;12.88;;;;;;;;;;7490105;28;20477;-64
2022/01/25 15:17:57;;;;;;;161.40;9.98;;;;;;;;;;7474409;28;20617;-64
2022/01/25 15:21:58;;;;;;;129.65;9.82;;;;;;;;;;7474784;28;20576;-64
2022/01/25 15:30:12;;;;;;;94.82;10.05;;;;;;;;;;7654212;23;20446;-72
2022/01/25 15:34:13;;;;;;;50.42;9.25;;;;;;;;;;7674528;28;20063;-72
2022/01/25 15:38:13;;;;;;;124.03;9.23;;;;;;;;;;7409052;23;21213;-60
2022/01/25 15:42:15;;;;;;;132.02;9.10;;;;;;;;;;7129981;28;20621;-61
2022/01/25 15:46:32;;;;;;;38.88;8.15;;;;;;;;;;7188659;28;20293;-61
2022/01/25 15:50:33;;;;;;;108.43;9.93;;;;;;;;;;7126153;28;21152;-61
2022/01/25 15:54:34;;;;;;;174.82;11.85;;;;;;;;;;7156796;28;20023;-61
2022/01/25 15:58:34;;;;;;;63.80;10.60;;;;;;;;;;7120838;28;20030;-61
2022/01/25 16:02:35;;;;;;;154.43;11.07;;;;;;;;;;7121158;28;20038;-61
2022/01/25 16:06:35;;;;;;;124.30;9.65;;;;;;;;;;7126235;28;20471;-62
2022/01/25 16:10:38;;;;;;;79.00;10.93;;;;;;;;;;7128204;28;20903;-61
2022/01/25 16:14:38;;;;;;;171.73;10.73;;;;;;;;;;7130355;28;20355;-61
2022/01/25 16:18:39;;;;;;;115.95;10.27;;;;;;;;;;7124389;28;20161;-62
2022/01/25 16:22:39;;;;;;;252.60;11.50;;;;;;;;;;7164560;28;20026;-62
2022/01/25 16:26:39;;;;;;;205.85;10.63;;;;;;;;;;7130513;28;20031;-62
2022/01/25 16:30:40;;;;;;;109.50;9.20;;;;;;;;;;7141103;28;20131;-62
2022/01/25 16:34:40;;;;;;;74.78;10.05;;;;;;;;;;7131621;28;20057;-62
2022/01/25 16:38:41;;;;;;;72.40;8.55;;;;;;;;;;7169746;28;20917;-62
2022/01/25 16:42:41;;;;;;;174.85;10.02;;;;;;;;;;7138254;28;20601;-63
2022/01/25 16:46:42;;;;;;;121.03;10.37;;;;;;;;;;7144807;28;20072;-62
2022/01/25 16:50:42;;;;;;;56.28;8.60;;;;;;;;;;7141455;28;20292;-63
2022/01/25 16:54:43;;;;;;;132.85;13.25;;;;;;;;;;7141129;28;20040;-63
2022/01/25 16:58:44;;;;;;;60.25;8.85;;;;;;;;;;7127671;28;20034;-62
2022/01/25 17:02:44;;;;;;;134.80;9.43;;;;;;;;;;7121776;28;20292;-62
2022/01/25 17:06:45;;;;;;;97.63;8.45;;;;;;;;;;7118628;28;20023;-62
2022/01/25 17:10:45;;;;;;;119.05;8.75;;;;;;;;;;7125214;28;20308;-62
2022/01/25 17:14:45;;;;;;;57.95;7.70;;;;;;;;;;7134847;28;20140;-63
2022/01/25 17:18:48;;;;;;;82.87;7.90;;;;;;;;;;7116178;28;20506;-62
2022/01/25 17:22:48;;;;;;;124.57;8.13;;;;;;;;;;7131144;28;20996;-62
2022/01/25 17:26:49;;;;;;;108.68;8.18;;;;;;;;;;7153433;28;20030;-62
2022/01/25 17:30:52;;;;;;;120.82;9.25;;;;;;;;;;7157932;28;20119;-63
2022/01/25 17:34:52;;;;;;;64.28;7.88;;;;;;;;;;7158491;28;20100;-62
2022/01/25 17:38:52;;;;;;;117.40;8.70;;;;;;;;;;7172801;28;20665;-62
2022/01/25 17:42:53;;;;;;;129.93;10.52;;;;;;;;;;7148167;28;21326;-63
2022/01/25 17:46:53;;;;;;;203.40;10.93;;;;;;;;;;7150781;28;20262;-60
2022/01/25 17:50:54;;;;;;;101.78;10.25;;;;;;;;;;7130225;28;20149;-60
2022/01/25 17:54:56;;;;;;;87.10;8.43;;;;;;;;;;7178397;28;21285;-62
2022/01/25 17:58:59;;;;;;;32.45;7.40;;;;;;;;;;7150627;28;20307;-62
2022/01/25 18:02:59;;;;;;;63.45;8.50;;;;;;;;;;7149784;28;20543;-62
2022/01/25 18:07:00;;;;;;;62.45;8.02;;;;;;;;;;7181824;28;20040;-62
2022/01/25 18:11:00;;;;;;;88.20;8.65;;;;;;;;;;7175757;28;20144;-62
2022/01/25 18:15:04;;;;;;;265.08;12.50;;;;;;;;;;7135861;28;20098;-62
2022/01/25 18:19:07;;;;;;;102.30;8.75;;;;;;;;;;7127556;28;20862;-62
2022/01/25 18:23:23;;;;;;;144.40;9.82;;;;;;;;;;7133408;28;20053;-62
2022/01/25 18:27:24;;;;;;;75.30;9.38;;;;;;;;;;7122417;28;21018;-62
2022/01/25 18:31:25;;;;;;;110.85;14.98;;;;;;;;;;7117265;28;20157;-63
2022/01/25 18:35:27;;;;;;;188.75;19.33;;;;;;;;;;7124437;28;20380;-62
2022/01/25 18:39:27;;;;;;;242.60;13.23;;;;;;;;;;7127598;28;20100;-62
2022/01/25 18:43:27;;;;;;;473.57;18.37;;;;;;;;;;7127259;28;20075;-62
2022/01/25 18:47:27;;;;;;;251.90;13.77;;;;;;;;;;7125528;28;20887;-62
2022/01/25 18:51:30;;;;;;;377.93;14.80;;;;;;;;;;7127925;28;21114;-62
2022/01/25 18:55:30;;;;;;;71.57;8.38;;;;;;;;;;7129066;28;20836;-62
2022/01/25 18:59:30;;;;;;;35.67;8.00;;;;;;;;;;7124511;28;21139;-62
2022/01/25 19:03:32;;;;;;;58.63;8.23;;;;;;;;;;7123547;28;21114;-62
2022/01/25 19:07:32;;;;;;;72.28;7.57;;;;;;;;;;7123124;28;20422;-62
2022/01/25 19:11:33;;;;;;;15.90;6.35;;;;;;;;;;7122929;28;21452;-62
2022/01/25 19:15:33;;;;;;;30.23;6.13;;;;;;;;;;7123311;28;20266;-62
2022/01/25 19:19:34;;;;;;;28.27;6.50;;;;;;;;;;7123040;28;20419;-62
2022/01/25 19:23:34;;;;;;;73.05;7.03;;;;;;;;;;7123674;28;20825;-62
2022/01/25 19:27:35;;;;;;;54.00;7.22;;;;;;;;;;7125619;28;20546;-62
2022/01/25 19:31:35;;;;;;;34.40;6.68;;;;;;;;;;7118986;28;21011;-62
2022/01/25 19:35:37;;;;;;;105.90;8.15;;;;;;;;;;7127148;28;20903;-62
2022/01/25 19:39:39;;;;;;;125.28;8.27;;;;;;;;;;7120187;28;20037;-62
2022/01/25 19:43:43;;;;;;;144.10;18.30;;;;;;;;;;7119706;28;20026;-62
2022/01/25 19:47:45;;;;;;;77.55;11.55;;;;;;;;;;7121542;28;20553;-62
2022/01/25 19:51:46;;;;;;;221.90;10.88;;;;;;;;;;7125344;28;20720;-62
2022/01/25 19:55:53;;;;;;;247.87;13.30;;;;;;;;;;7123935;28;20938;-62
2022/01/25 19:59:54;;;;;;;228.38;12.32;;;;;;;;;;7130792;28;20620;-62
2022/01/25 20:03:56;;;;;;;182.65;12.77;;;;;;;;;;7122557;28;21166;-62
2022/01/25 20:07:56;;;;;;;326.73;14.38;;;;;;;;;;7120908;28;21094;-62
2022/01/25 20:12:01;;;;;;;336.50;12.75;;;;;;;;;;7119778;28;21115;-62
2022/01/25 20:16:04;;;;;;;577.35;18.13;;;;;;;;;;7117709;28;20041;-62
2022/01/25 20:20:10;;;;;;;345.38;12.75;;;;;;;;;;7128392;28;20042;-62
2022/01/25 20:24:22;;;;;;;362.45;11.43;;;;;;;;;;7118802;28;20796;-62
2022/01/25 20:28:26;;;;;;;462.17;21.05;;;;;;;;;;7120105;28;21132;-62
2022/01/25 20:32:33;;;;;;;397.77;11.98;;;;;;;;;;7118482;28;21236;-62
2022/01/25 20:36:33;;;;;;;516.25;17.25;;;;;;;;;;7118616;28;21485;-62
2022/01/25 20:40:33;;;;;;;431.45;15.63;;;;;;;;;;7111371;28;20037;-62
2022/01/25 20:44:33;;;;;;;228.65;8.32;;;;;;;;;;7120079;28;20030;-62
2022/01/25 20:48:34;;;;;;;452.42;12.55;;;;;;;;;;7119409;28;20034;-62
2022/01/25 20:52:36;;;;;;;321.80;9.77;;;;;;;;;;7122330;28;20042;-62
2022/01/25 20:56:36;;;;;;;276.52;10.75;;;;;;;;;;7121751;28;20878;-62
2022/01/25 21:00:46;;;;;;;368.42;10.63;;;;;;;;;;7123556;28;21219;-62
2022/01/25 21:08:56;;;;;;;89.50;6.03;;;;;;;;;;7121133;28;20022;-62
2022/01/25 21:12:56;;;;;;;221.43;8.90;;;;;;;;;;7118816;28;20137;-62
2022/01/25 21:16:56;;;;;;;62.00;6.80;;;;;;;;;;7116628;28;20053;-62
2022/01/25 21:20:56;;;;;;;153.73;7.68;;;;;;;;;;7114802;28;20026;-62
2022/01/25 21:24:57;;;;;;;47.70;5.65;;;;;;;;;;7111275;28;21364;-62
2022/01/25 21:28:58;;;;;;;105.88;6.43;;;;;;;;;;8071781;28;20281;-62
2022/01/25 21:32:58;;;;;;;109.90;6.68;;;;;;;;;;8224661;28;20042;-62
2022/01/25 21:36:58;;;;;;;266.08;9.70;;;;;;;;;;8225609;28;20176;-62
2022/01/25 21:40:58;;;;;;;252.57;12.10;;;;;;;;;;8223776;28;20029;-62
2022/01/25 21:44:59;;;;;;;165.45;9.13;;;;;;;;;;8223319;28;20118;-62
2022/01/25 21:49:00;;;;;;;182.23;10.27;;;;;;;;;;8226804;28;20620;-62
2022/01/25 21:53:02;;;;;;;200.25;9.52;;;;;;;;;;8226031;28;20035;-62
2022/01/25 21:57:02;;;;;;;108.43;7.47;;;;;;;;;;8224761;28;20057;-62
2022/01/25 22:01:05;;;;;;;190.30;8.82;;;;;;;;;;8220355;28;20034;-62
2022/01/25 22:05:06;;;;;;;132.40;8.73;;;;;;;;;;8222123;28;20658;-62
2022/01/25 22:09:14;;;;;;;229.05;11.18;;;;;;;;;;8224642;28;20561;-62
2022/01/25 22:13:20;;;;;;;100.10;7.68;;;;;;;;;;8222872;28;20052;-62
2022/01/25 22:17:22;;;;;;;159.38;7.57;;;;;;;;;;8224438;28;20823;-63
2022/01/25 22:21:23;;;;;;;351.10;11.95;;;;;;;;;;8222565;28;20960;-62
2022/01/25 22:25:24;;;;;;;334.58;11.48;;;;;;;;;;8206592;28;20238;-62
2022/01/25 22:29:24;;;;;;;61.40;7.88;;;;;;;;;;8221728;28;20047;-62
2022/01/25 22:33:24;;;;;;;149.80;8.63;;;;;;;;;;8224781;28;20042;-62
2022/01/25 22:37:25;;;;;;;109.45;8.35;;;;;;;;;;8225759;28;20278;-62
2022/01/25 22:41:26;;;;;;;71.72;8.77;;;;;;;;;;8225340;28;20038;-63
2022/01/25 22:45:27;;;;;;;175.20;10.40;;;;;;;;;;8224166;28;20124;-62
2022/01/25 22:53:42;;;;;;;66.97;8.98;;;;;;;;;;8228138;28;20057;-62
2022/01/25 22:57:42;;;;;;;153.25;9.07;;;;;;;;;;8225998;28;20427;-62
2022/01/25 23:01:43;;;;;;;123.00;7.72;;;;;;;;;;8225826;28;20042;-63
2022/01/25 23:05:48;;;;;;;191.60;8.98;;;;;;;;;;8131090;28;21182;-62
2022/01/25 23:09:49;;;;;;;119.47;8.50;;;;;;;;;;8225427;28;20026;-62
2022/01/25 23:17:55;;;;;;;65.07;8.05;;;;;;;;;;8228404;28;20037;-62
2022/01/25 23:21:55;;;;;;;59.40;7.28;;;;;;;;;;8228452;28;20034;-62
2022/01/25 23:26:03;;;;;;;67.22;7.93;;;;;;;;;;8232725;28;20603;-62
2022/01/25 23:34:46;;;;;;;57.35;8.05;;;;;;;;;;8235931;28;20088;-62
2022/01/25 23:38:52;;;;;;;71.68;9.18;;;;;;;;;;8232719;28;20038;-62
2022/01/25 23:42:53;;;;;;;84.75;8.50;;;;;;;;;;8232161;28;21022;-62
2022/01/25 23:46:57;;;;;;;38.63;6.87;;;;;;;;;;8234502;28;20891;-62
2022/01/25 23:51:08;;;;;;;35.22;7.07;;;;;;;;;;8232647;28;20862;-62
2022/01/25 23:59:38;;;;;;;6.43;4.28;;;;;;;;;;8234382;28;20497;-62
